Historyczne dane pomiarowe

Dodano dane terminowe – wersja testowa.

Dane z okresu 1951-2019

Wersja bazy: 1.34 [2019-03-16, lista zmian], aktualizacja planowana na 2019-04-15

Dane meteo z obszaru Polski uzyskane na podstawie danych udostępnionych przez Instytut Meteorologii i Gospodarki Wodnej – Państwowy Instytut Badawczy.

 

Wybierz Datę:    

       

TemperaturaWilgotnośćWiatrCiśnienieOpadyŚniegCzas trwania zjawisk
 Stacja t tx tn tng RH VA  wxwx mslp ppp RRR   cm mm wxwxwxwxwxwxwx
1999-08-14 15.3 20.5 10.5 7.8 77.5- 5.3 3.7---- 1.7------------
1999-08-13 14.4 18.5 11.3 9.9 85.8- 7.7 5.7---- 2.4------------
1999-08-12 15.2 22.0 9.1 6.3 76.5- 5.7 5.7---- 0.0------------
1999-08-11 17.0 22.5 13.0 9.9 83.3- 6.0 4.3---- 0.0------------
1999-08-10 18.2 26.0 12.5 9.4 81.3- 7.3 3.7---- 9.0------------
1999-08-09 20.4 29.5 16.5 12.9 79.0- 6.0 5.3---- 0.0------------
1999-08-08 21.1 27.5 15.5 14.1 75.0- 7.0 4.0---- 1.8------------
1999-08-07 20.4 31.5 8.9 6.8 64.3- 4.0 3.3---- 7.7------------
1999-08-06 21.2 31.5 9.2 6.8 60.8- 4.3 2.3---- 0.0------------
1999-08-05 19.4 28.5 9.4 7.0 59.3- 2.7 2.3---- 0.0------------
1999-08-04 19.8 28.2 10.5 7.3 59.8- 4.3 3.7---- 0.0------------
1999-08-03 20.4 28.5 12.4 8.1 59.0- 3.7 3.0---- 0.0------------
1999-08-02 18.8 25.7 13.5 6.8 57.3- 2.0 3.0---- 0.0------------
1999-08-01 20.2 27.3 13.9 7.9 53.0- 3.0 5.0---- 0.0------------
1999-07-31 21.0 28.5 12.7 5.9 62.3- 3.0 4.0---- 0.0------------
1999-07-30 17.9 27.5 8.4 3.9 65.0- 3.0 4.0---- 0.0------------
1999-07-29 18.2 26.0 11.4 4.9 63.0- 2.3 4.7---- 0.0------------
1999-07-28 17.3 24.1 10.7 9.4 64.0- 3.3 6.0---- 0.0------------
1999-07-27 16.0 22.2 10.5 6.4 69.3- 5.0 6.7---- 0.0------------
1999-07-26 17.5 22.2 13.2 10.0 81.0- 7.0 3.0---- 0.0------------
1999-07-25 20.2 25.5 15.0 12.9 71.5- 4.7 4.3---- 0.0------------
1999-07-24 17.9 21.9 13.0 10.0 76.0- 7.0 7.3---- 0.0------------
1999-07-23 15.8 22.5 10.1 9.4 78.3- 6.3 4.7---- 0.3------------
1999-07-22 17.3 23.5 11.0 8.2 65.5- 7.0 3.7---- 0.0------------
1999-07-21 19.9 28.5 10.5 8.4 70.8- 3.3 5.0---- 0.0------------
1999-07-20 21.2 31.5 9.9 8.1 72.0- 5.7 6.3---- 10.0------------
1999-07-19 18.0 28.5 9.0 7.8 68.8- 6.3 5.0---- 0.0------------
1999-07-18 22.3 27.5 12.5 8.4 61.3- 5.0 4.3---- 2.9------------
1999-07-17 18.2 23.7 12.7 9.7 79.0- 5.0 4.7---- 0.0------------
1999-07-16 17.5 22.5 13.2 11.1 66.3- 5.0 5.3---- 0.0------------
1999-07-15 17.3 20.2 14.8 8.4 77.0- 5.7 5.3---- 0.0------------
1999-07-14 20.0 28.5 15.0 7.3 84.8- 6.7 5.0---- 6.5------------
1999-07-13 21.9 29.5 14.5 8.2 67.5- 5.7 3.0---- 0.0------------
1999-07-12 20.1 28.5 14.7 8.4 68.0- 4.0 4.0---- 0.0------------
1999-07-11 19.7 27.5 12.3 7.6 52.8- 2.3 7.3---- 0.0------------
1999-07-10 20.2 25.5 12.6 8.5 59.0- 1.7 9.0---- 0.0------------
1999-07-09 18.0 22.7 13.5 11.4 69.5- 3.0 10.3---- 0.0------------
1999-07-08 17.5 21.0 15.0 13.9 84.0- 7.7 4.7---- 7.5------------
1999-07-07 18.1 21.2 16.0 14.8 78.8- 6.7 2.7---- 0.0------------
1999-07-06 22.9 27.2 19.8 17.4 73.3- 3.7 4.7---- 14.5------------
1999-07-05 24.2 31.2 17.7 16.0 64.5- 0.3 4.7---- 0.0------------
1999-07-04 23.2 29.5 17.4 12.8 74.8- 4.0 4.7---- 0.0------------
1999-07-03 19.7 23.8 14.0 11.9 72.5- 4.3 3.3---- 3.0------------
1999-07-02 17.2 23.1 11.4 10.1 72.5- 4.3 2.7---- 0.0------------
1999-07-01 20.0 25.2 16.5 14.5 83.3- 5.0 2.7---- 42.0------------
1999-06-30 18.2 25.5 10.4 9.3 67.5- 3.0 3.3---- 0.0------------
1999-06-29 17.4 26.0 9.4 8.0 69.3- 3.3 2.3---- 0.0------------
1999-06-28 17.6 28.0 9.2 7.0 73.5- 5.3 3.7---- 36.0------------
1999-06-27 18.9 25.9 9.0 7.1 65.0- 5.3 7.3---- 0.0------------
1999-06-26 14.8 19.8 8.1 5.8 71.8- 4.3 8.3---- 0.0------------
1999-06-25 13.2 16.9 8.9 5.8 78.5- 4.7 2.0---- 0.4------------
1999-06-24 11.2 18.1 4.3 0.5 72.5- 6.0 4.7---- 0.0------------
1999-06-23 11.5 14.9 7.4 6.6 79.8- 7.3 7.0---- 0.8------------
1999-06-22 11.9 16.7 9.3 7.8 87.0- 8.0 7.0---- 14.0------------
1999-06-21 15.6 21.6 11.7 10.4 82.3- 6.7 6.7---- 0.9------------
1999-06-20 18.6 22.6 13.8 11.9 72.0- 5.7 5.3---- 0.0------------
1999-06-19 18.4 25.0 10.3 8.1 82.8- 6.3 3.3---- 0.0------------
1999-06-18 17.9 24.5 9.9 8.4 72.5- 4.3 3.3---- 0.0------------
1999-06-17 17.6 23.0 10.5 8.8 74.0- 7.0 1.7---- 0.0------------
1999-06-16 16.2 22.0 10.3 9.0 77.3- 5.7 4.3---- 0.0------------
4004.3 ms

 

Źródłem pochodzenia danych jest Instytut Meteorologii i Gospodarki Wodnej – Państwowy Instytut Badawczy. Dane Instytutu Meteorologii i Gospodarki Wodnej – Państwowego Instytutu Badawczego zostały przetworzone.

Dane źródłowe można odnaleźć na stronie https://dane.imgw.pl